Time;durP1;ratioP1;P1;durP2;ratioP2;P2;SDS_P1;SDS_P2;PMS_P1;PMS_P2;Temp;Humidity;BMP_temperature;BMP_pressure;BME280_temperature;BME280_humidity;BME280_pressure;Samples;Min_cycle;Max_cycle;Signal;HPM_P1;HPM_P2
2021/03/30 00:02:04;;;;;;;7.43;6.17;;;9.00;99.90;;;;;;4897366;28;20201;-76
2021/03/30 00:04:26;;;;;;;6.53;5.63;;;9.00;99.90;;;;;;4916281;28;20249;-77
2021/03/30 00:06:48;;;;;;;6.27;5.67;;;9.00;99.90;;;;;;4862853;28;20194;-78
2021/03/30 00:09:10;;;;;;;6.90;5.70;;;9.00;99.90;;;;;;4856914;28;20227;-80
2021/03/30 00:11:32;;;;;;;6.33;5.73;;;8.90;99.90;;;;;;4865362;28;20218;-78
2021/03/30 00:13:55;;;;;;;6.27;5.53;;;8.90;99.90;;;;;;4878060;28;20181;-81
2021/03/30 00:16:18;;;;;;;6.57;5.77;;;8.90;99.90;;;;;;4898567;28;20312;-78
2021/03/30 00:18:41;;;;;;;6.43;5.60;;;8.90;99.90;;;;;;4898791;28;20180;-81
2021/03/30 00:21:03;;;;;;;6.13;5.37;;;8.90;99.90;;;;;;4887634;28;20205;-79
2021/03/30 00:23:25;;;;;;;6.53;5.87;;;9.00;99.90;;;;;;4896831;28;20232;-80
2021/03/30 00:25:47;;;;;;;5.90;5.33;;;8.90;99.90;;;;;;4869295;28;20209;-78
2021/03/30 00:28:09;;;;;;;6.07;5.27;;;9.00;99.90;;;;;;4855698;28;20291;-80
2021/03/30 00:30:31;;;;;;;5.30;4.80;;;9.00;99.90;;;;;;4862424;28;20189;-79
2021/03/30 00:32:55;;;;;;;6.53;5.33;;;9.00;99.90;;;;;;4861897;28;20631;-81
2021/03/30 00:35:18;;;;;;;5.10;4.60;;;9.10;99.90;;;;;;4879021;28;20573;-78
2021/03/30 00:37:40;;;;;;;5.97;4.80;;;9.10;99.90;;;;;;4863080;28;20194;-79
2021/03/30 00:40:04;;;;;;;4.60;4.20;;;9.10;99.90;;;;;;4868977;28;20193;-80
2021/03/30 00:42:26;;;;;;;5.10;4.63;;;9.10;99.90;;;;;;4841990;28;20246;-80
2021/03/30 00:44:49;;;;;;;5.57;5.07;;;9.10;99.90;;;;;;4894043;28;20212;-79
2021/03/30 00:47:14;;;;;;;5.47;5.07;;;9.10;99.90;;;;;;4916214;28;20581;-80
2021/03/30 00:49:36;;;;;;;5.30;4.80;;;9.20;99.90;;;;;;4882072;28;20299;-78
2021/03/30 00:51:59;;;;;;;5.50;4.90;;;9.20;99.90;;;;;;4878524;28;20630;-79
2021/03/30 00:54:42;;;;;;;5.30;4.80;;;9.20;99.90;;;;;;4843089;28;20205;-79
2021/03/30 00:57:06;;;;;;;5.83;4.67;;;9.10;99.90;;;;;;4877120;28;20209;-79
2021/03/30 00:59:29;;;;;;;5.80;4.80;;;9.10;99.90;;;;;;4885460;28;20215;-79
2021/03/30 01:01:52;;;;;;;5.50;5.00;;;9.20;99.90;;;;;;4905871;28;20197;-80
2021/03/30 01:04:14;;;;;;;6.73;6.03;;;9.20;99.90;;;;;;4883251;28;20193;-76
2021/03/30 01:06:36;;;;;;;8.03;7.37;;;9.20;99.90;;;;;;4844703;28;20214;-79
2021/03/30 01:09:15;;;;;;;7.23;6.60;;;9.20;99.90;;;;;;4883151;28;20708;-79
2021/03/30 01:11:49;;;;;;;6.27;5.67;;;9.20;99.90;;;;;;4888349;28;20205;-78
2021/03/30 01:14:27;;;;;;;7.07;5.80;;;9.20;99.90;;;;;;4877730;28;20259;-78
2021/03/30 01:16:53;;;;;;;6.27;5.23;;;9.20;99.90;;;;;;4915900;28;20168;-79
2021/03/30 01:19:29;;;;;;;5.47;4.97;;;9.20;99.90;;;;;;4898261;28;20192;-78
2021/03/30 01:22:28;;;;;;;7.13;5.27;;;9.20;99.90;;;;;;4895222;28;20200;-80
2021/03/30 01:24:55;;;;;;;5.97;5.37;;;9.20;99.90;;;;;;4912857;28;20715;-78
2021/03/30 01:27:26;;;;;;;5.90;5.33;;;9.20;99.90;;;;;;4915382;28;20187;-78
2021/03/30 01:29:52;;;;;;;5.37;4.83;;;9.20;99.90;;;;;;4875307;28;20201;-81
2021/03/30 01:32:28;;;;;;;5.73;5.00;;;9.20;99.90;;;;;;4858354;28;20702;-80
2021/03/30 01:34:52;;;;;;;5.97;5.33;;;9.20;99.90;;;;;;4863368;28;20224;-79
2021/03/30 01:37:16;;;;;;;6.07;5.37;;;9.20;99.90;;;;;;4864197;28;20189;-80
2021/03/30 01:39:39;;;;;;;5.53;5.10;;;9.20;99.90;;;;;;4893090;28;20197;-81
2021/03/30 01:42:02;;;;;;;6.60;5.20;;;9.20;99.90;;;;;;4878561;28;20578;-80
2021/03/30 01:44:26;;;;;;;5.27;4.80;;;9.20;99.90;;;;;;4877448;28;20185;-79
2021/03/30 01:46:51;;;;;;;5.23;4.73;;;9.20;99.90;;;;;;4860795;28;20202;-80
2021/03/30 01:49:13;;;;;;;6.17;5.57;;;9.20;99.90;;;;;;4895992;28;20208;-79
2021/03/30 01:51:36;;;;;;;5.33;4.83;;;9.30;99.90;;;;;;4878680;28;20222;-79
2021/03/30 01:54:00;;;;;;;5.67;5.17;;;9.30;99.90;;;;;;4878668;28;20699;-78
2021/03/30 01:56:24;;;;;;;5.77;5.27;;;9.30;99.90;;;;;;4894952;28;20192;-78
2021/03/30 01:58:47;;;;;;;6.40;5.80;;;9.30;99.90;;;;;;4891410;28;20234;-78
2021/03/30 02:01:10;;;;;;;5.40;4.93;;;9.30;99.90;;;;;;4893381;28;20239;-80
2021/03/30 02:03:33;;;;;;;5.00;4.57;;;9.20;99.90;;;;;;4861096;28;20618;-80
2021/03/30 02:05:57;;;;;;;5.37;4.97;;;9.30;99.90;;;;;;4860139;28;20591;-80
2021/03/30 02:08:20;;;;;;;5.63;5.13;;;9.30;99.90;;;;;;4887847;28;20223;-78
2021/03/30 02:10:49;;;;;;;5.60;5.07;;;9.30;99.90;;;;;;4888645;28;20189;-79
2021/03/30 02:13:19;;;;;;;5.83;5.33;;;9.30;99.90;;;;;;4895011;28;20220;-81
2021/03/30 02:15:41;;;;;;;5.50;5.10;;;9.30;99.90;;;;;;4841296;28;20660;-80
2021/03/30 02:18:06;;;;;;;6.03;5.47;;;9.30;99.90;;;;;;4879010;28;20196;-80
2021/03/30 02:20:32;;;;;;;6.50;5.90;;;9.30;99.90;;;;;;4896612;28;20246;-78
2021/03/30 02:22:58;;;;;;;5.70;5.13;;;9.30;99.90;;;;;;4888082;28;20225;-75
2021/03/30 02:25:21;;;;;;;5.97;5.47;;;9.20;99.90;;;;;;4876761;28;20205;-80
2021/03/30 02:27:44;;;;;;;5.40;4.93;;;9.30;99.90;;;;;;4883413;28;20207;-79
2021/03/30 02:30:09;;;;;;;5.90;5.30;;;9.30;99.90;;;;;;4896812;28;20234;-81
2021/03/30 02:32:32;;;;;;;5.30;4.80;;;9.30;99.90;;;;;;4858479;28;20238;-78
2021/03/30 02:34:56;;;;;;;5.90;5.03;;;9.20;99.90;;;;;;4859513;28;20202;-80
2021/03/30 02:37:20;;;;;;;6.30;5.70;;;9.30;99.90;;;;;;4861837;28;20181;-79
2021/03/30 02:39:43;;;;;;;6.63;5.83;;;9.30;99.90;;;;;;4893713;28;20255;-78
2021/03/30 02:42:06;;;;;;;6.37;5.87;;;9.30;99.90;;;;;;4896519;28;20559;-79
2021/03/30 02:44:30;;;;;;;6.30;5.77;;;9.30;99.90;;;;;;4889893;28;20574;-78
2021/03/30 02:46:55;;;;;;;6.47;5.77;;;9.30;99.90;;;;;;4877403;28;20196;-80
2021/03/30 02:49:21;;;;;;;7.00;6.40;;;9.30;99.90;;;;;;4898723;28;20237;-78
2021/03/30 02:51:45;;;;;;;7.73;7.07;;;9.30;99.90;;;;;;4874828;28;20209;-80
2021/03/30 02:54:10;;;;;;;7.83;7.20;;;9.20;99.90;;;;;;4861648;28;20293;-81
2021/03/30 02:56:33;;;;;;;6.33;5.80;;;9.30;99.90;;;;;;4895655;28;20185;-80
2021/03/30 02:58:55;;;;;;;6.27;5.73;;;9.30;99.90;;;;;;4914733;28;20222;-78
2021/03/30 03:01:17;;;;;;;7.00;6.40;;;9.30;99.90;;;;;;4877411;28;20208;-78
2021/03/30 03:03:40;;;;;;;6.17;5.63;;;9.30;99.90;;;;;;4877498;28;20593;-78
2021/03/30 03:06:03;;;;;;;6.93;6.33;;;9.30;99.90;;;;;;4892117;28;20257;-78
2021/03/30 03:08:26;;;;;;;6.43;5.87;;;9.30;99.90;;;;;;4902083;28;20184;-77
2021/03/30 03:10:52;;;;;;;7.13;6.43;;;9.30;99.90;;;;;;4914675;28;20188;-79
2021/03/30 03:13:17;;;;;;;7.63;6.97;;;9.30;99.90;;;;;;4886847;28;20274;-79
2021/03/30 03:15:41;;;;;;;8.00;7.33;;;9.30;99.90;;;;;;4875894;28;20655;-78
2021/03/30 03:18:04;;;;;;;13.23;11.90;;;9.30;99.90;;;;;;4901681;28;20257;-79
2021/03/30 03:20:27;;;;;;;15.23;11.17;;;9.30;99.90;;;;;;4916129;28;20180;-80
2021/03/30 03:22:49;;;;;;;10.97;8.63;;;9.20;99.90;;;;;;4877948;28;21016;-79
2021/03/30 03:25:15;;;;;;;5.93;5.40;;;9.10;99.90;;;;;;4897468;28;20188;-81
2021/03/30 03:27:38;;;;;;;6.43;5.83;;;9.20;99.90;;;;;;4900283;28;20180;-79
2021/03/30 03:30:05;;;;;;;7.10;6.40;;;9.20;99.90;;;;;;4899695;28;20617;-77
2021/03/30 03:32:27;;;;;;;7.87;7.17;;;9.20;99.90;;;;;;4898413;28;20224;-80
2021/03/30 03:34:49;;;;;;;7.33;6.73;;;9.20;99.90;;;;;;4879644;28;20189;-77
2021/03/30 03:37:11;;;;;;;7.27;6.67;;;9.20;99.90;;;;;;4864212;28;20211;-79
2021/03/30 03:39:34;;;;;;;7.60;6.93;;;9.20;99.90;;;;;;4895881;28;20218;-80
2021/03/30 03:41:56;;;;;;;7.77;6.97;;;9.20;99.90;;;;;;4899058;28;20200;-81
2021/03/30 03:44:19;;;;;;;6.60;5.97;;;9.30;99.90;;;;;;4847680;28;20694;-80
2021/03/30 03:46:41;;;;;;;7.47;6.80;;;9.20;99.90;;;;;;4897531;28;20181;-78
2021/03/30 03:49:05;;;;;;;7.53;6.90;;;9.20;99.90;;;;;;4879649;28;20597;-79
2021/03/30 03:51:32;;;;;;;7.50;6.87;;;9.20;99.90;;;;;;4897801;28;20242;-81
2021/03/30 03:53:55;;;;;;;7.97;7.27;;;9.20;99.90;;;;;;4883243;28;20594;-80
2021/03/30 03:56:23;;;;;;;7.07;6.47;;;9.20;99.90;;;;;;4859516;28;20206;-78
2021/03/30 03:58:48;;;;;;;7.83;7.13;;;9.20;99.90;;;;;;4896733;28;20566;-78
2021/03/30 04:01:15;;;;;;;8.00;7.23;;;9.20;99.90;;;;;;4877451;28;20197;-76
2021/03/30 04:03:47;;;;;;;28.73;19.00;;;9.20;99.90;;;;;;4860497;28;20245;-80
2021/03/30 04:06:13;;;;;;;18.67;14.17;;;9.20;99.90;;;;;;4890184;28;20197;-79
2021/03/30 04:08:41;;;;;;;21.47;14.90;;;9.10;99.90;;;;;;4840903;28;20245;-80
2021/03/30 04:11:05;;;;;;;21.93;14.03;;;9.10;99.90;;;;;;4860236;28;20252;-79
2021/03/30 04:13:32;;;;;;;16.00;10.83;;;9.00;99.90;;;;;;4844450;28;20214;-80
2021/03/30 04:15:54;;;;;;;13.87;10.00;;;9.00;99.90;;;;;;4878541;28;20633;-79
2021/03/30 04:18:17;;;;;;;5.97;5.37;;;9.00;99.90;;;;;;4879693;28;20206;-79
2021/03/30 04:20:40;;;;;;;6.20;5.67;;;9.00;99.90;;;;;;4879258;28;20193;-80
2021/03/30 04:23:02;;;;;;;8.90;7.70;;;8.90;99.90;;;;;;4905635;28;20219;-80
2021/03/30 04:25:25;;;;;;;8.73;7.87;;;8.90;99.90;;;;;;4897573;28;20223;-80
2021/03/30 04:27:47;;;;;;;8.60;7.80;;;8.90;99.90;;;;;;4875550;28;20336;-80
2021/03/30 04:30:10;;;;;;;9.17;8.30;;;8.90;99.90;;;;;;4861857;28;20549;-80
2021/03/30 04:32:32;;;;;;;8.87;7.97;;;8.90;99.90;;;;;;4882115;28;20201;-79
2021/03/30 04:34:55;;;;;;;8.93;8.13;;;8.90;99.90;;;;;;4897770;28;20199;-81
2021/03/30 04:37:17;;;;;;;8.80;8.10;;;8.90;99.90;;;;;;4896802;28;20189;-80
2021/03/30 04:39:39;;;;;;;8.20;7.50;;;9.00;99.90;;;;;;4868919;28;20201;-80
2021/03/30 04:42:01;;;;;;;8.40;7.73;;;9.00;99.90;;;;;;4883458;28;20219;-78
2021/03/30 04:44:23;;;;;;;8.57;7.67;;;9.00;99.90;;;;;;4896893;28;20184;-80
2021/03/30 04:46:45;;;;;;;7.73;7.13;;;9.10;99.90;;;;;;4878652;28;20247;-81
2021/03/30 04:49:07;;;;;;;9.03;8.23;;;9.10;99.90;;;;;;4879089;28;20201;-79
2021/03/30 04:51:31;;;;;;;8.70;7.80;;;9.10;99.90;;;;;;4879218;28;20196;-79
2021/03/30 04:53:53;;;;;;;9.20;8.30;;;9.10;99.90;;;;;;4900257;28;20641;-80
2021/03/30 04:56:15;;;;;;;9.43;8.50;;;9.20;99.90;;;;;;4860825;28;20220;-80
2021/03/30 04:58:37;;;;;;;9.80;8.90;;;9.10;99.90;;;;;;4907899;28;20253;-77
2021/03/30 05:00:59;;;;;;;10.27;9.37;;;9.10;99.90;;;;;;4908250;28;20531;-80
2021/03/30 05:03:21;;;;;;;9.63;8.80;;;9.10;99.90;;;;;;4895195;28;20172;-77
2021/03/30 05:05:43;;;;;;;8.13;7.43;;;9.10;99.90;;;;;;4863895;28;20617;-78
2021/03/30 05:08:07;;;;;;;8.13;7.40;;;9.20;99.90;;;;;;4872105;28;20205;-78
2021/03/30 05:10:29;;;;;;;9.77;8.97;;;9.20;99.90;;;;;;4876540;28;20192;-76
2021/03/30 05:12:51;;;;;;;8.63;7.93;;;9.20;99.90;;;;;;4858209;28;20232;-79
2021/03/30 05:15:14;;;;;;;8.40;7.70;;;9.30;99.90;;;;;;4860307;28;20194;-77
2021/03/30 05:17:36;;;;;;;8.10;7.40;;;9.30;99.90;;;;;;4877744;28;20198;-80
2021/03/30 05:19:58;;;;;;;8.27;7.47;;;9.30;99.90;;;;;;4857876;28;20190;-80
2021/03/30 05:22:21;;;;;;;8.50;7.73;;;9.30;99.90;;;;;;4856985;28;20636;-80
2021/03/30 05:24:43;;;;;;;8.00;7.30;;;9.30;99.90;;;;;;4888042;28;20692;-80
2021/03/30 05:27:07;;;;;;;7.00;6.40;;;9.40;99.90;;;;;;4877920;28;20205;-78
2021/03/30 05:29:29;;;;;;;7.20;6.60;;;9.40;99.90;;;;;;4910327;28;20196;-79
2021/03/30 05:31:51;;;;;;;7.37;6.70;;;9.50;99.90;;;;;;4897692;28;20219;-80
2021/03/30 05:34:13;;;;;;;6.67;6.17;;;9.50;99.90;;;;;;4913717;28;20215;-77
2021/03/30 05:36:35;;;;;;;6.63;6.07;;;9.60;99.90;;;;;;4878188;28;20197;-80
2021/03/30 05:38:57;;;;;;;6.30;5.70;;;9.60;99.90;;;;;;4903131;28;20234;-79
2021/03/30 05:41:20;;;;;;;6.47;5.90;;;9.70;99.90;;;;;;4861630;28;20263;-80
2021/03/30 05:43:42;;;;;;;6.63;6.10;;;9.60;99.90;;;;;;4907636;28;20646;-79
2021/03/30 05:46:05;;;;;;;6.63;6.03;;;9.80;99.90;;;;;;4896724;28;20634;-80
2021/03/30 05:48:28;;;;;;;6.17;5.60;;;9.90;99.90;;;;;;4904826;28;20670;-80
2021/03/30 05:50:51;;;;;;;5.83;5.30;;;9.90;99.90;;;;;;4861470;28;20210;-80
2021/03/30 05:53:14;;;;;;;4.77;4.37;;;10.00;99.90;;;;;;4884074;28;20254;-78
2021/03/30 05:55:38;;;;;;;5.67;5.23;;;10.10;99.90;;;;;;4914827;28;20642;-79
2021/03/30 05:58:03;;;;;;;5.77;5.27;;;10.10;99.90;;;;;;4892328;28;20274;-78
2021/03/30 06:00:27;;;;;;;5.53;5.03;;;10.30;99.90;;;;;;4893125;28;20650;-76
2021/03/30 06:02:52;;;;;;;4.97;4.57;;;10.40;99.90;;;;;;4894136;28;20521;-80
2021/03/30 06:05:16;;;;;;;3.83;3.53;;;10.50;99.90;;;;;;4876977;28;20224;-79
2021/03/30 06:07:38;;;;;;;4.20;3.83;;;10.60;99.90;;;;;;4879029;28;20185;-79
2021/03/30 06:10:00;;;;;;;3.87;3.57;;;10.70;99.90;;;;;;4888561;28;20671;-81
2021/03/30 06:12:23;;;;;;;3.90;3.60;;;10.80;99.90;;;;;;4878289;28;20189;-79
2021/03/30 06:14:48;;;;;;;3.93;3.60;;;10.90;99.90;;;;;;4906091;28;20641;-79
2021/03/30 06:17:11;;;;;;;3.80;3.50;;;10.90;99.90;;;;;;4895728;28;20230;-80
2021/03/30 06:19:56;;;;;;;3.43;3.20;;;11.10;99.90;;;;;;4896050;28;20643;-80
2021/03/30 06:22:19;;;;;;;4.17;3.67;;;11.20;99.90;;;;;;4877628;28;20228;-81
2021/03/30 06:24:43;;;;;;;3.67;3.37;;;11.30;99.90;;;;;;4896179;28;20694;-80
2021/03/30 06:27:28;;;;;;;3.40;3.10;;;11.30;97.80;;;;;;4874613;28;20198;-81
2021/03/30 06:29:52;;;;;;;3.97;3.53;;;11.40;94.10;;;;;;4858497;28;20190;-78
2021/03/30 06:32:16;;;;;;;3.90;3.57;;;11.40;91.90;;;;;;4903743;28;20654;-81
2021/03/30 06:34:40;;;;;;;3.87;3.57;;;11.50;92.40;;;;;;4857312;28;20222;-80
2021/03/30 06:37:16;;;;;;;3.53;3.27;;;11.60;87.50;;;;;;4871826;28;20198;-79
2021/03/30 06:39:40;;;;;;;3.77;3.23;;;11.70;69.90;;;;;;4896490;28;20234;-80
2021/03/30 06:42:07;;;;;;;3.53;3.23;;;11.70;72.80;;;;;;4843964;28;20267;-80
2021/03/30 06:44:34;;;;;;;3.63;3.33;;;11.80;78.40;;;;;;4889375;28;20239;-81
2021/03/30 06:46:59;;;;;;;3.60;2.90;;;11.90;86.00;;;;;;4879611;28;20201;-81
2021/03/30 06:49:23;;;;;;;3.37;3.10;;;12.10;62.50;;;;;;4895298;28;20193;-77
2021/03/30 06:51:46;;;;;;;3.30;3.00;;;12.20;66.30;;;;;;4892754;28;20252;-82
2021/03/30 06:54:09;;;;;;;3.20;2.90;;;12.40;62.00;;;;;;4866578;28;20222;-81
2021/03/30 06:56:45;;;;;;;3.57;3.27;;;12.50;49.40;;;;;;4879891;28;20933;-81
2021/03/30 06:59:08;;;;;;;2.97;2.70;;;12.50;26.70;;;;;;4893638;28;20250;-78
2021/03/30 07:01:31;;;;;;;2.80;2.60;;;12.60;32.10;;;;;;4866122;28;20561;-82
2021/03/30 07:03:56;;;;;;;2.27;2.00;;;12.70;36.00;;;;;;4859858;28;20206;-80
2021/03/30 07:06:19;;;;;;;2.60;2.30;;;12.80;29.50;;;;;;4868028;28;20197;-77
2021/03/30 07:08:42;;;;;;;2.50;2.30;;;13.00;16.00;;;;;;4852103;28;20198;-76
2021/03/30 07:11:04;;;;;;;1.93;1.83;;;13.10;22.20;;;;;;4891525;28;20207;-79
2021/03/30 07:13:26;;;;;;;1.67;1.57;;;13.20;27.50;;;;;;4879384;28;20540;-80
2021/03/30 07:15:52;;;;;;;2.13;1.93;;;13.40;9.00;;;;;;4861482;28;20205;-79
2021/03/30 07:18:23;;;;;;;1.80;1.70;;;13.60;1.00;;;;;;4852630;28;20205;-78
2021/03/30 07:20:49;;;;;;;1.83;1.70;;;13.70;1.00;;;;;;4868566;28;20185;-79
2021/03/30 07:23:13;;;;;;;1.47;1.37;;;13.90;1.00;;;;;;4871717;28;20814;-79
2021/03/30 07:25:39;;;;;;;1.67;1.57;;;14.10;1.00;;;;;;4877414;28;20185;-76
2021/03/30 07:28:06;;;;;;;1.33;1.23;;;14.30;1.00;;;;;;4851983;28;20202;-83
2021/03/30 07:30:29;;;;;;;1.37;1.27;;;14.30;1.00;;;;;;4841579;28;20199;-77
2021/03/30 07:33:03;;;;;;;1.13;1.10;;;14.50;1.00;;;;;;4861802;28;20252;-80
2021/03/30 07:35:28;;;;;;;1.27;1.27;;;14.50;1.00;;;;;;4867259;28;20235;-75
2021/03/30 07:37:58;;;;;;;0.97;0.97;;;14.60;1.00;;;;;;4859594;28;20186;-79
2021/03/30 07:40:22;;;;;;;1.17;1.07;;;14.60;1.00;;;;;;4860326;28;20270;-79
2021/03/30 07:42:46;;;;;;;1.23;1.13;;;14.60;1.00;;;;;;4848232;28;20202;-78
2021/03/30 07:45:10;;;;;;;0.90;0.90;;;14.60;99.90;;;;;;4859950;28;20202;-80
2021/03/30 07:47:33;;;;;;;0.87;0.87;;;14.60;1.00;;;;;;4872757;28;20193;-78
2021/03/30 07:49:56;;;;;;;0.93;0.93;;;14.60;1.00;;;;;;4835343;28;20206;-77
2021/03/30 07:52:20;;;;;;;1.13;0.97;;;14.60;1.00;;;;;;4883201;28;20196;-83
2021/03/30 07:55:22;;;;;;;0.93;0.93;;;14.60;16.40;;;;;;4877839;28;20768;-77
2021/03/30 07:58:10;;;;;;;1.27;1.17;;;14.70;99.90;;;;;;4851448;28;20218;-81
2021/03/30 08:01:03;;;;;;;1.07;1.07;;;14.90;99.90;;;;;;4862369;28;20251;-79
2021/03/30 08:03:31;;;;;;;1.13;1.13;;;15.20;1.00;;;;;;4874881;28;20243;-83
2021/03/30 08:06:17;;;;;;;1.13;1.07;;;15.40;1.00;;;;;;4841864;28;20256;-81
2021/03/30 08:08:57;;;;;;;1.10;1.07;;;15.50;1.00;;;;;;4857269;28;20237;-84
2021/03/30 08:11:49;;;;;;;0.87;0.87;;;15.80;99.90;;;;;;4856601;28;20256;-81
2021/03/30 08:14:12;;;;;;;0.87;0.87;;;16.10;99.90;;;;;;4862868;28;20206;-82
2021/03/30 08:16:36;;;;;;;0.67;0.67;;;16.40;99.90;;;;;;4881527;28;20494;-76
2021/03/30 08:18:59;;;;;;;0.60;0.60;;;16.80;99.90;;;;;;4860298;28;20202;-82
2021/03/30 08:21:21;;;;;;;0.57;0.57;;;17.20;76.10;;;;;;4843269;28;20292;-87
2021/03/30 08:24:06;;;;;;;0.50;0.50;;;17.40;1.00;;;;;;4878490;28;20221;-87
2021/03/30 08:26:35;;;;;;;0.60;0.60;;;17.70;1.00;;;;;;4878070;28;20282;-82
2021/03/30 08:29:00;;;;;;;0.73;0.40;;;18.10;1.00;;;;;;4881706;28;20197;-85
2021/03/30 08:31:25;;;;;;;24.53;20.63;;;18.70;1.00;;;;;;4897556;28;20507;-86
2021/03/30 09:37:45;;;;;;;1.20;1.10;;;21.30;1.00;;;;;;4908241;28;20788;-88
2021/03/30 09:40:09;;;;;;;3.43;1.17;;;21.60;1.00;;;;;;4880020;28;20176;-87
2021/03/30 09:42:32;;;;;;;1.97;1.00;;;;;;;;;;4879333;28;20202;-80
2021/03/30 09:44:54;;;;;;;0.50;0.50;;;;;;;;;;4876188;28;20185;-84
2021/03/30 09:47:16;;;;;;;2.27;1.20;;;21.70;1.00;;;;;;4881547;28;20203;-89
2021/03/30 09:49:41;;;;;;;3.83;1.20;;;21.50;1.00;;;;;;4885735;28;20217;-86
2021/03/30 09:52:04;;;;;;;3.80;1.20;;;21.60;1.00;;;;;;4886922;28;20700;-81
2021/03/30 09:54:29;;;;;;;5.33;1.77;;;21.70;1.00;;;;;;4871932;28;20231;-79
2021/03/30 09:56:59;;;;;;;0.27;0.27;;;21.60;1.00;;;;;;4872376;28;20861;-80
2021/03/30 09:59:21;;;;;;;0.40;0.40;;;21.00;1.00;;;;;;4872888;28;20242;-74
2021/03/30 10:01:44;;;;;;;1.53;0.87;;;;;;;;;;4871584;28;20196;-81
2021/03/30 10:04:06;;;;;;;0.20;0.20;;;22.40;1.00;;;;;;4872637;28;20255;-89
2021/03/30 10:06:29;;;;;;;5.60;1.27;;;22.50;1.00;;;;;;4854904;28;20314;-86
2021/03/30 10:09:03;;;;;;;1.50;0.70;;;22.90;1.00;;;;;;4872560;28;20217;-81
2021/03/30 10:11:27;;;;;;;4.23;1.60;;;23.50;1.00;;;;;;4871794;28;20204;-84
2021/03/30 10:13:49;;;;;;;4.43;0.97;;;;;;;;;;4873762;28;20703;-89
2021/03/30 10:16:13;;;;;;;1.67;0.67;;;;;;;;;;4872041;28;20975;-84
2021/03/30 10:18:36;;;;;;;1.10;0.80;;;23.90;1.00;;;;;;4873206;28;20671;-76
2021/03/30 10:21:00;;;;;;;0.47;0.47;;;23.70;1.00;;;;;;4855938;28;20199;-87
2021/03/30 10:23:25;;;;;;;0.67;0.67;;;23.40;1.00;;;;;;4872132;28;20197;-87
2021/03/30 10:25:48;;;;;;;0.37;0.37;;;;;;;;;;4872449;28;20205;-84
2021/03/30 10:28:11;;;;;;;0.47;0.47;;;24.20;1.00;;;;;;4872902;28;20188;-80
2021/03/30 10:30:40;;;;;;;0.40;0.40;;;24.30;1.00;;;;;;4872310;28;20194;-82
2021/03/30 10:33:03;;;;;;;0.30;0.30;;;24.70;1.00;;;;;;4871123;28;20197;-83
2021/03/30 10:35:26;;;;;;;0.70;0.70;;;24.80;1.00;;;;;;4869053;28;20220;-83
2021/03/30 10:37:48;;;;;;;0.47;0.47;;;24.70;1.00;;;;;;4868473;28;20202;-77
2021/03/30 10:40:11;;;;;;;0.47;0.47;;;24.80;1.00;;;;;;4872266;28;20264;-84
2021/03/30 10:42:37;;;;;;;0.63;0.63;;;24.40;1.00;;;;;;4871998;28;20820;-84
2021/03/30 10:45:04;;;;;;;0.63;0.63;;;24.30;1.00;;;;;;4871676;28;20230;-79
2021/03/30 10:47:32;;;;;;;0.57;0.57;;;24.70;1.00;;;;;;4867574;28;20204;-80
2021/03/30 10:49:55;;;;;;;1.00;0.90;;;24.70;1.00;;;;;;4859610;28;20187;-85
2021/03/30 10:52:19;;;;;;;0.60;0.60;;;24.70;1.00;;;;;;4858316;28;20221;-80
2021/03/30 10:54:41;;;;;;;0.77;0.77;;;24.40;1.00;;;;;;4858264;28;20207;-80
2021/03/30 10:57:07;;;;;;;0.40;0.40;;;25.10;1.00;;;;;;4857862;28;20261;-83
2021/03/30 10:59:29;;;;;;;0.77;0.77;;;25.40;1.00;;;;;;4858412;28;20208;-83
2021/03/30 11:01:52;;;;;;;0.50;0.50;;;26.20;1.00;;;;;;4855645;28;20199;-73
2021/03/30 11:04:14;;;;;;;0.30;0.30;;;26.00;1.00;;;;;;4857974;28;20192;-88
2021/03/30 11:06:37;;;;;;;0.37;0.37;;;26.70;1.00;;;;;;4856937;28;20230;-87
2021/03/30 11:08:59;;;;;;;0.37;0.37;;;27.40;1.00;;;;;;4810505;28;20730;-84
2021/03/30 11:11:21;;;;;;;0.20;0.20;;;27.30;99.90;;;;;;4860209;28;20193;-89
2021/03/30 11:13:43;;;;;;;0.20;0.20;;;27.90;99.90;;;;;;4858882;28;20259;-87
2021/03/30 11:16:06;;;;;;;0.10;0.10;;;28.50;99.90;;;;;;4859566;28;20308;-84
2021/03/30 11:18:29;;;;;;;0.20;0.20;;;28.90;99.90;;;;;;4858628;28;20856;-84
2021/03/30 11:20:51;;;;;;;0.20;0.20;;;29.10;99.90;;;;;;4858326;28;20195;-85
2021/03/30 11:23:13;;;;;;;0.20;0.20;;;29.20;99.90;;;;;;4855464;28;20241;-87
2021/03/30 11:25:37;;;;;;;0.20;0.20;;;29.20;99.90;;;;;;4838800;28;20254;-91
2021/03/30 11:28:04;;;;;;;0.10;0.10;;;29.30;99.90;;;;;;4860370;28;20196;-84
2021/03/30 11:30:29;;;;;;;0.30;0.30;;;29.20;99.90;;;;;;4841785;28;20899;-85
2021/03/30 11:33:00;;;;;;;0.27;0.27;;;28.90;99.90;;;;;;4859210;28;20701;-83
2021/03/30 11:35:28;;;;;;;0.20;0.20;;;28.50;99.90;;;;;;4858425;28;20240;-83
2021/03/30 11:37:54;;;;;;;0.20;0.20;;;28.10;99.90;;;;;;4858506;28;20255;-84
2021/03/30 11:40:17;;;;;;;0.30;0.30;;;27.70;99.90;;;;;;4857782;28;20201;-80
2021/03/30 11:42:39;;;;;;;0.23;0.23;;;27.30;99.90;;;;;;4859737;28;20196;-87
2021/03/30 11:45:01;;;;;;;0.30;0.30;;;27.00;99.90;;;;;;4841253;28;20206;-85
2021/03/30 11:47:24;;;;;;;0.20;0.20;;;26.80;99.90;;;;;;4841471;28;20704;-84
2021/03/30 11:49:46;;;;;;;0.20;0.20;;;26.80;99.90;;;;;;4859223;28;20596;-81
2021/03/30 11:52:09;;;;;;;0.20;0.20;;;26.80;99.90;;;;;;4858587;28;20239;-83
2021/03/30 11:54:32;;;;;;;0.20;0.20;;;26.70;99.90;;;;;;4856827;28;20695;-88
2021/03/30 11:56:54;;;;;;;0.20;0.20;;;26.70;99.90;;;;;;4857344;28;20714;-73
2021/03/30 11:59:17;;;;;;;0.20;0.20;;;26.60;99.90;;;;;;4856350;28;20187;-72
2021/03/30 12:01:39;;;;;;;0.20;0.20;;;26.40;99.90;;;;;;4854602;28;20205;-73
2021/03/30 12:04:01;;;;;;;0.20;0.20;;;26.10;99.90;;;;;;4857121;28;20229;-73
2021/03/30 12:06:23;;;;;;;0.20;0.20;;;25.70;99.90;;;;;;4856647;28;20202;-73
2021/03/30 12:08:46;;;;;;;0.20;0.20;;;25.50;99.90;;;;;;4856446;28;20190;-72
2021/03/30 12:11:08;;;;;;;0.30;0.30;;;25.30;99.90;;;;;;4856996;28;20762;-72
2021/03/30 12:13:30;;;;;;;0.20;0.20;;;25.10;99.90;;;;;;4839471;28;20209;-73
2021/03/30 12:15:52;;;;;;;0.30;0.30;;;25.20;99.90;;;;;;4857342;28;20197;-73
2021/03/30 12:18:14;;;;;;;0.20;0.20;;;25.30;99.90;;;;;;4857595;28;20185;-72
2021/03/30 12:20:36;;;;;;;0.20;0.20;;;25.50;99.90;;;;;;4855885;28;20197;-74
2021/03/30 12:22:59;;;;;;;0.20;0.20;;;26.00;99.90;;;;;;4857743;28;20186;-73
2021/03/30 12:25:22;;;;;;;0.20;0.20;;;26.50;99.90;;;;;;4856164;28;20659;-73
2021/03/30 12:27:44;;;;;;;0.20;0.20;;;27.00;99.90;;;;;;4855941;28;20229;-73
2021/03/30 12:30:07;;;;;;;0.20;0.20;;;27.40;99.90;;;;;;4855536;28;20213;-72
2021/03/30 12:32:29;;;;;;;0.30;0.30;;;27.50;99.90;;;;;;4856415;28;20192;-73
2021/03/30 12:34:51;;;;;;;0.20;0.20;;;27.60;99.90;;;;;;4856795;28;20195;-72
2021/03/30 12:37:13;;;;;;;0.20;0.20;;;27.60;99.90;;;;;;4857431;28;20258;-72
2021/03/30 12:39:35;;;;;;;0.10;0.10;;;27.50;99.90;;;;;;4857190;28;20190;-73
2021/03/30 12:41:58;;;;;;;0.17;0.17;;;27.40;99.90;;;;;;4856346;28;20264;-73
2021/03/30 12:44:20;;;;;;;0.20;0.20;;;27.30;99.90;;;;;;4856762;28;20244;-73
2021/03/30 12:46:43;;;;;;;0.20;0.20;;;27.00;99.90;;;;;;4855562;28;20216;-73
2021/03/30 12:49:05;;;;;;;0.10;0.10;;;26.60;99.90;;;;;;4855528;28;20527;-72
2021/03/30 12:51:27;;;;;;;0.17;0.17;;;26.20;99.90;;;;;;4857144;28;20219;-73
2021/03/30 12:53:49;;;;;;;0.20;0.20;;;25.90;99.90;;;;;;4856540;28;20212;-72
2021/03/30 12:56:11;;;;;;;0.20;0.20;;;25.70;99.90;;;;;;4855505;28;20206;-72
2021/03/30 12:58:34;;;;;;;0.20;0.20;;;25.60;99.90;;;;;;4836645;28;20194;-73
2021/03/30 13:00:56;;;;;;;0.20;0.20;;;25.60;99.90;;;;;;4853767;28;20824;-72
2021/03/30 13:03:19;;;;;;;0.30;0.30;;;25.50;99.90;;;;;;4856364;28;20213;-72
2021/03/30 13:05:41;;;;;;;0.20;0.20;;;25.40;99.90;;;;;;4856513;28;20663;-72
2021/03/30 13:08:03;;;;;;;0.20;0.20;;;25.20;99.90;;;;;;4857166;28;20217;-73
2021/03/30 13:10:25;;;;;;;0.20;0.20;;;25.10;99.90;;;;;;4854789;28;20213;-72
2021/03/30 13:12:47;;;;;;;0.10;0.10;;;24.90;99.90;;;;;;4855432;28;20728;-72
2021/03/30 13:15:12;;;;;;;0.10;0.10;;;24.60;99.90;;;;;;4855409;28;20247;-72
2021/03/30 13:17:34;;;;;;;0.20;0.20;;;24.40;99.90;;;;;;4857156;28;20192;-72
2021/03/30 13:19:56;;;;;;;0.20;0.20;;;24.10;99.90;;;;;;4856621;28;20246;-72
2021/03/30 13:22:20;;;;;;;0.20;0.20;;;23.80;99.90;;;;;;4839005;28;20201;-72
2021/03/30 13:24:42;;;;;;;0.30;0.30;;;23.50;99.90;;;;;;4855611;28;20274;-71
2021/03/30 13:27:06;;;;;;;0.20;0.20;;;23.20;99.90;;;;;;4856541;28;20213;-72
2021/03/30 13:29:28;;;;;;;0.20;0.20;;;23.00;99.90;;;;;;4854201;28;20350;-73
2021/03/30 13:31:51;;;;;;;0.30;0.30;;;22.90;99.90;;;;;;4856843;28;20213;-72
2021/03/30 13:34:13;;;;;;;0.20;0.20;;;22.90;99.90;;;;;;4855272;28;20189;-73
2021/03/30 13:36:35;;;;;;;0.20;0.20;;;22.80;1.00;;;;;;4851854;28;20220;-72
2021/03/30 13:38:57;;;;;;;0.30;0.30;;;22.70;99.90;;;;;;4855700;28;20202;-72
2021/03/30 13:41:21;;;;;;;0.10;0.10;;;22.60;99.90;;;;;;4856040;28;20186;-72
2021/03/30 13:43:45;;;;;;;0.10;0.10;;;22.40;99.90;;;;;;4855529;28;20220;-72
2021/03/30 13:46:07;;;;;;;0.20;0.20;;;22.20;99.90;;;;;;4837893;28;20199;-72